Thursday, January 17, 2019, 6:14 AM EST
Back to Local

KCEF, Chicopee Falls / Westover Air Force Base

Location: Chicopee, MA, United States Lat: 42.2
Local Time: 6:14 AM EST (11:14 GMT) Lon: -72.533
Time Zone: US/Eastern Elev: 246 ft

Show me the last for .
Show Coded

Time T Td Feel RH Dir Speed Gust Alt SLP Vis Weather Sky Remarks
2019-01-17 04:56 16 -2 9 44 320° 5 - 30.31 30.34 10 CLR None
2019-01-17 03:56 19 0 10 42 310° 7 - 30.29 30.32 10 CLR None
2019-01-17 02:56 21 2 12 42 320° 8 - 30.27 30.30 10 CLR None
2019-01-17 01:56 25 5 13 42 340° 14 - 30.23 30.26 10 FEW034 None
2019-01-17 00:56 27 12 17 53 310° 10 - 30.19 30.21 10 SCT033 OVC042 6-hr Min Temp (1am): 26.6°F
6-hr Max Temp (1am): 35.6°F
2019-01-16 23:56 27 11 18 49 310° 9 - 30.18 30.21 10 BKN046 24-hr Min Temp (12am): 21.0°F
24-hr Max Temp (12am): 37.4°F
2019-01-16 22:56 28 11 14 48 300° 15 21 30.14 30.16 10 FEW055 None
2019-01-16 21:56 29 13 20 49 300° 10 - 30.11 30.14 10 FEW055 Peak wind: 29 mph (26 kts) from 290° at 33 min
2019-01-16 20:56 31 12 16 45 310° 14 28 30.08 30.11 10 FEW055 Peak wind: 36 mph (32 kts) from 320° at 01 min
2019-01-16 19:56 34 16 21 47 320° 17 25 30.05 30.08 10 BKN043 Peak wind: 34 mph (30 kts) from 330° at 44 min
2019-01-16 18:56 36 20 26 52 300° 15 - 30.01 30.03 10 SCT047 BKN055 Peak wind: 29 mph (26 kts) from 280° at 19 min
6-hr Min Temp (7pm): 33.8°F
6-hr Max Temp (7pm): 37.4°F
2019-01-16 18:45 36 19 25 51 320° 17 - 30.01 30.03 10 OVC050 None
2019-01-16 17:56 37 17 30 42 260° 12 - 29.97 30.00 10 -SN OVC050 None
2019-01-16 16:56 37 18 31 45 250° 8 - 29.95 29.98 10 OVC060 None
2019-01-16 15:56 37 19 30 49 230° 8 - 29.94 29.96 10 BKN050 None
2019-01-16 14:56 37 20 30 49 250° 9 - 29.94 29.96 10 BKN047 None
2019-01-16 13:56 36 20 29 51 260° 9 - 29.94 29.96 10 BKN037 None
2019-01-16 12:56 34 20 28 58 210° 7 - 29.93 29.96 10 BKN034 6-hr Min Temp (1pm): 22.1°F
6-hr Max Temp (1pm): 33.6°F
2019-01-16 11:56 33 20 25 58 210° 9 - 29.95 29.98 10 OVC033 None
2019-01-16 10:56 31 19 23 60 200° 9 - 29.97 30.00 10 OVC039 None
2019-01-16 09:56 29 19 20 65 190° 10 - 29.98 30.01 10 OVC032 None
2019-01-16 08:56 28 19 19 67 190° 9 - 29.97 30.00 10 BKN035 None
2019-01-16 07:56 24 17 16 73 200° 7 - 29.97 30.00 10 FEW025 SCT250 None
2019-01-16 06:56 22 16 13 78 190° 8 - 29.98 30.01 10 FEW055 SCT250 6-hr Min Temp (7am): 21.0°F
6-hr Max Temp (7am): 26.1°F

Support USWX by starting your Amazon purchase here.